EGKK/LGW METAR and TAF weather

Enter ICAO airport designator
Station Type Date Time Source
EGKK METAR 2019/04/19 22:50 UTC NOAA

EGKK 192250Z VRB02KT CAVOK 11/05 Q1030


Station Type Date Time Source
EGKK Decoded METAR 2019/04/19 22:50 UTC NOAA

London / Gatwick Airport, United Kingdom (EGKK) 51-09N 000-11W 0M
Apr 19, 2019 - 06:50 PM EDT / 2019.04.19 2250 UTC
Wind: Variable at 2 MPH (2 KT):0
Visibility: greater than 7 mile(s):0
Temperature: 51 F (11 C)
Dew Point: 41 F (5 C)
Relative Humidity: 66%
Pressure (altimeter): 30.42 in. Hg (1030 hPa)
ob: EGKK 192250Z VRB02KT CAVOK 11/05 Q1030
cycle: 23

Station Type Date Time Source
EGKK TAF 2019/04/19 18:06 UTC NOAA

TAF EGKK 191704Z 1918/2024 04008KT CAVOK
TEMPO 2000/2009 7000 PROB30 2021/2024 7000

Example: see airport list